Huvudsida
METAR-TAF:

METAR-TAF

Flygplatser :

Halmstad City Airport

Halmstad, Sverige

latitud: 56-41N, longitud: 012-50E, höjd: 30 m

Aktuellt väderrapport

Denna rapport gjordes för 24 minuter sedan, klockan 00:50 UTC
Vind 1 kt varierande vindriktning
Temperatur 2°C
Fuktighet 87%
Tryck 1028 hPa
Sikt: 2700 m

METAR: ESMT 210050Z AUTO VRB01KT 2700 NCD 02/M00 Q1028

Tid: 03:14 (01:14 UTC)

Väderprognos

Denna rapport gjordes för 14 timmar och 2 minuter sedan, klockan 11:12 UTC
Prognos gäller från 20 kl. 12 UTC till 20 kl. 15 UTC
Vind 10 kt från väst
Sikt 10 km eller mer
Inga moln under 1 500 m eller inga cumulonimbus

TAF: ESMT 201112Z 2012/2015 26010KT CAVOK

Aktuella väderrapporter och prognoser från 4000 flygplatser (METAR- och TAF-rapporter).

De tillgängliga stationerna syns som gula och röda prickar på kartan.

För musen över prickarna för att se namnen på stationerna.

Klicka sedan för att få väderrapporter och prognoser.

För att ändra kartan: Klicka på de gröna knapparna med ett svart kors på för att zooma in; den gröna knappen med ett streck på för att zooma ut; eller på de gröna pilarna för angränsande kartor.


METAR-TAF: